Time;durP1;ratioP1;P1;durP2;ratioP2;P2;SDS_P1;SDS_P2;PMS_P1;PMS_P2;Temp;Humidity;BMP_temperature;BMP_pressure;BME280_temperature;BME280_humidity;BME280_pressure;Samples;Min_cycle;Max_cycle;Signal;HPM_P1;HPM_P2
2022/06/16 00:02:08;;;;;;;8.82;3.70;;;15.70;88.20;;;;;;5031917;28;20052;-42
2022/06/16 00:04:36;;;;;;;9.35;4.60;;;15.70;88.50;;;;;;5048772;28;20102;-42
2022/06/16 00:07:03;;;;;;;9.77;4.50;;;15.70;89.20;;;;;;5051065;28;20098;-43
2022/06/16 00:09:29;;;;;;;7.97;3.65;;;15.60;89.30;;;;;;5032625;28;20437;-43
2022/06/16 00:11:58;;;;;;;8.02;4.43;;;15.60;89.70;;;;;;5034702;28;20045;-43
2022/06/16 00:14:27;;;;;;;7.75;4.00;;;15.60;89.30;;;;;;5033305;28;20068;-43
2022/06/16 00:16:54;;;;;;;8.65;4.18;;;15.50;89.40;;;;;;5032302;28;20065;-43
2022/06/16 00:19:21;;;;;;;11.35;4.68;;;15.50;90.10;;;;;;5051817;28;20119;-42
2022/06/16 00:21:48;;;;;;;8.27;4.07;;;15.50;90.50;;;;;;5033346;28;20131;-43
2022/06/16 00:24:15;;;;;;;11.95;4.57;;;15.40;90.80;;;;;;5050039;28;20049;-44
2022/06/16 00:26:41;;;;;;;10.07;4.95;;;15.30;90.90;;;;;;5033251;28;20536;-43
2022/06/16 00:29:10;;;;;;;7.18;4.55;;;15.30;91.30;;;;;;5049379;28;20141;-43
2022/06/16 00:31:36;;;;;;;9.65;4.40;;;15.20;91.50;;;;;;5032090;28;20485;-43
2022/06/16 00:34:03;;;;;;;9.15;3.50;;;15.20;91.40;;;;;;5048895;28;20087;-44
2022/06/16 00:36:30;;;;;;;8.18;4.57;;;15.10;91.10;;;;;;5052101;28;20479;-43
2022/06/16 00:38:57;;;;;;;8.70;4.10;;;15.10;91.10;;;;;;5034876;28;20090;-43
2022/06/16 00:41:24;;;;;;;8.70;3.75;;;15.10;91.30;;;;;;5051766;28;20084;-43
2022/06/16 00:43:50;;;;;;;8.18;3.90;;;15.10;91.50;;;;;;5032641;28;20094;-44
2022/06/16 00:46:19;;;;;;;7.03;3.38;;;15.10;91.40;;;;;;5033982;28;20045;-43
2022/06/16 00:48:46;;;;;;;5.70;3.25;;;15.10;91.00;;;;;;5050840;28;20044;-43
2022/06/16 00:51:15;;;;;;;5.88;3.40;;;15.10;91.00;;;;;;5049035;28;20099;-42
2022/06/16 00:53:42;;;;;;;7.60;3.70;;;15.00;91.10;;;;;;5050845;28;20120;-42
2022/06/16 00:56:10;;;;;;;6.82;3.88;;;15.00;91.00;;;;;;5034238;28;20041;-42
2022/06/16 00:58:40;;;;;;;9.98;4.25;;;15.00;91.20;;;;;;5033816;28;20496;-43
2022/06/16 01:01:07;;;;;;;6.43;3.78;;;15.00;91.50;;;;;;5047066;28;20047;-42
2022/06/16 01:06:21;;;;;;;5.63;3.75;;;14.80;92.50;;;;;;5050223;28;20053;-42
2022/06/16 01:08:49;;;;;;;7.50;3.80;;;14.60;92.70;;;;;;5050136;28;20047;-42
2022/06/16 01:14:00;;;;;;;8.95;3.72;;;14.50;92.70;;;;;;5030572;28;20044;-42
2022/06/16 01:16:30;;;;;;;6.55;3.38;;;14.50;92.70;;;;;;5031651;28;20540;-42
2022/06/16 01:19:03;;;;;;;7.05;4.10;;;14.40;92.60;;;;;;5032464;28;20045;-42
2022/06/16 01:21:33;;;;;;;10.95;5.28;;;14.50;92.70;;;;;;5051780;28;20044;-42
2022/06/16 01:24:20;;;;;;;8.88;5.40;;;14.50;93.20;;;;;;5029801;28;20145;-42
2022/06/16 01:27:23;;;;;;;9.90;5.18;;;14.40;94.00;;;;;;5050166;28;20080;-43
2022/06/16 01:29:54;;;;;;;7.63;4.35;;;14.30;94.30;;;;;;5032195;28;20140;-42
2022/06/16 01:32:25;;;;;;;11.18;4.45;;;14.20;94.30;;;;;;5032634;28;20135;-42
2022/06/16 01:35:08;;;;;;;5.67;3.47;;;14.20;94.20;;;;;;5031200;28;20071;-43
2022/06/16 01:37:40;;;;;;;10.02;4.32;;;14.20;93.60;;;;;;5028904;28;20327;-42
2022/06/16 01:40:09;;;;;;;6.35;3.72;;;14.20;94.20;;;;;;5050009;28;20041;-42
2022/06/16 01:42:36;;;;;;;8.25;4.60;;;14.30;94.00;;;;;;5051020;28;20045;-42
2022/06/16 01:45:09;;;;;;;9.68;3.63;;;14.20;94.20;;;;;;5050307;28;20560;-42
2022/06/16 01:47:35;;;;;;;5.18;3.40;;;14.30;93.80;;;;;;5031464;28;20937;-42
2022/06/16 01:50:05;;;;;;;10.02;4.50;;;14.30;93.60;;;;;;5049833;28;20060;-42
2022/06/16 01:52:34;;;;;;;8.02;4.35;;;14.30;93.80;;;;;;5051250;28;20045;-42
2022/06/16 01:55:02;;;;;;;7.50;3.80;;;14.30;94.10;;;;;;5032644;28;20076;-43
2022/06/16 01:57:30;;;;;;;7.55;4.32;;;14.30;93.90;;;;;;5050630;28;20048;-42
2022/06/16 01:59:59;;;;;;;8.60;3.78;;;14.30;93.70;;;;;;5050912;28;20041;-42
2022/06/16 02:02:29;;;;;;;6.13;3.63;;;14.40;93.90;;;;;;5032622;28;20118;-42
2022/06/16 02:04:59;;;;;;;6.47;3.25;;;14.40;93.60;;;;;;5025096;28;20048;-43
2022/06/16 02:07:31;;;;;;;7.88;4.38;;;14.40;93.40;;;;;;5049910;28;20049;-43
2022/06/16 02:09:58;;;;;;;12.98;5.28;;;14.30;94.30;;;;;;5043350;28;20048;-42
2022/06/16 02:15:15;;;;;;;6.50;3.63;;;14.20;95.00;;;;;;5049059;28;20397;-42
2022/06/16 02:17:43;;;;;;;8.73;3.78;;;14.20;94.80;;;;;;5049476;28;20131;-42
2022/06/16 02:20:10;;;;;;;10.57;4.72;;;14.20;94.90;;;;;;5031815;28;20098;-42
2022/06/16 02:22:37;;;;;;;8.35;3.53;;;14.20;95.20;;;;;;5031619;28;20550;-42
2022/06/16 02:25:05;;;;;;;10.73;4.20;;;14.20;94.90;;;;;;5048896;28;20063;-42
2022/06/16 02:27:32;;;;;;;7.45;4.32;;;14.20;95.00;;;;;;5049354;28;20056;-42
2022/06/16 02:29:59;;;;;;;8.65;4.65;;;14.20;95.40;;;;;;5053109;28;20130;-42
2022/06/16 02:32:35;;;;;;;6.38;3.88;;;14.10;95.30;;;;;;5035125;28;20055;-42
2022/06/16 02:35:09;;;;;;;8.60;4.88;;;14.10;95.20;;;;;;5053461;28;20045;-42
2022/06/16 02:37:45;;;;;;;11.05;5.30;;;14.10;95.20;;;;;;5028804;28;20081;-42
2022/06/16 02:40:34;;;;;;;9.88;4.78;;;14.10;95.80;;;;;;5029830;28;20135;-43
2022/06/16 02:43:07;;;;;;;10.77;4.93;;;14.10;95.60;;;;;;5032711;28;20057;-43
2022/06/16 02:45:37;;;;;;;10.90;5.40;;;14.00;96.50;;;;;;5015702;28;20049;-42
2022/06/16 02:48:06;;;;;;;9.37;4.43;;;13.90;96.70;;;;;;5031837;28;20072;-42
2022/06/16 02:50:43;;;;;;;10.20;4.40;;;13.90;96.60;;;;;;5013929;28;20147;-42
2022/06/16 02:53:17;;;;;;;7.45;3.70;;;13.90;96.30;;;;;;5013511;28;20049;-42
2022/06/16 02:55:46;;;;;;;9.93;4.45;;;13.90;96.30;;;;;;5015060;28;20441;-41
2022/06/16 02:58:14;;;;;;;7.50;4.07;;;13.90;96.30;;;;;;5014792;28;20482;-42
2022/06/16 03:00:42;;;;;;;7.15;4.03;;;13.90;96.30;;;;;;5029066;28;20049;-42
2022/06/16 03:03:20;;;;;;;6.28;3.72;;;13.90;96.20;;;;;;5032733;28;20040;-42
2022/06/16 03:05:49;;;;;;;8.77;4.47;;;13.90;95.80;;;;;;5031470;28;20124;-42
2022/06/16 03:08:16;;;;;;;6.90;4.28;;;13.90;96.10;;;;;;5031923;28;20499;-42
2022/06/16 03:10:52;;;;;;;9.00;3.50;;;13.90;96.50;;;;;;5014523;28;20041;-42
2022/06/16 03:13:19;;;;;;;10.93;4.20;;;13.90;96.20;;;;;;5031795;28;20037;-42
2022/06/16 03:15:46;;;;;;;7.90;4.18;;;13.90;96.00;;;;;;5030755;28;20107;-43
2022/06/16 03:18:13;;;;;;;7.43;4.10;;;13.90;96.20;;;;;;5027513;28;20378;-42
2022/06/16 03:20:39;;;;;;;11.57;4.47;;;13.90;95.90;;;;;;5036523;28;20053;-42
2022/06/16 03:23:08;;;;;;;9.50;4.50;;;13.90;96.00;;;;;;5032371;28;20046;-42
2022/06/16 03:25:34;;;;;;;8.27;4.55;;;13.90;96.20;;;;;;5029344;28;20429;-42
2022/06/16 03:28:01;;;;;;;7.35;3.95;;;13.90;96.10;;;;;;5019653;28;20612;-43
2022/06/16 03:30:28;;;;;;;12.80;4.07;;;13.90;96.00;;;;;;5006526;28;20041;-42
2022/06/16 03:32:55;;;;;;;8.52;4.60;;;13.90;95.70;;;;;;5010823;28;20085;-42
2022/06/16 03:35:22;;;;;;;9.07;4.55;;;13.90;95.80;;;;;;5032195;28;20435;-43
2022/06/16 03:37:48;;;;;;;7.78;4.15;;;13.90;95.60;;;;;;5022437;28;20065;-43
2022/06/16 03:40:23;;;;;;;9.07;4.07;;;13.90;95.70;;;;;;5031177;28;20140;-42
2022/06/16 03:42:50;;;;;;;8.65;3.88;;;13.90;95.30;;;;;;5022535;28;20076;-42
2022/06/16 03:45:17;;;;;;;8.88;4.60;;;13.80;95.30;;;;;;5032556;28;20032;-42
2022/06/16 03:47:44;;;;;;;6.35;3.63;;;13.80;95.70;;;;;;5043583;28;20068;-42
2022/06/16 03:50:14;;;;;;;12.25;4.68;;;13.80;95.90;;;;;;5053847;28;20499;-42
2022/06/16 03:52:41;;;;;;;12.00;4.70;;;13.80;96.10;;;;;;5015376;28;20059;-42
2022/06/16 03:55:08;;;;;;;8.07;4.60;;;13.70;95.90;;;;;;5039103;28;20120;-42
2022/06/16 03:57:36;;;;;;;6.80;4.65;;;13.70;96.10;;;;;;5033884;28;20088;-42
2022/06/16 04:00:04;;;;;;;9.18;4.55;;;13.70;96.10;;;;;;5038119;28;20150;-42
2022/06/16 04:02:31;;;;;;;10.73;4.40;;;13.70;96.40;;;;;;5034537;28;20100;-42
2022/06/16 04:04:58;;;;;;;13.13;4.20;;;13.70;96.30;;;;;;5031531;28;20467;-42
2022/06/16 04:07:25;;;;;;;9.23;4.55;;;13.70;96.10;;;;;;5053041;28;20048;-43
2022/06/16 04:09:51;;;;;;;8.52;4.65;;;13.70;96.10;;;;;;5030840;28;20045;-42
2022/06/16 04:12:18;;;;;;;8.85;4.63;;;13.70;96.20;;;;;;5060816;28;20049;-43
2022/06/16 04:14:46;;;;;;;11.43;5.80;;;13.70;96.60;;;;;;5046135;28;20048;-43
2022/06/16 04:17:13;;;;;;;9.27;5.40;;;13.70;97.20;;;;;;5050060;28;20045;-43
2022/06/16 04:20:11;;;;;;;10.48;6.30;;;13.70;97.60;;;;;;5031496;28;20769;-43
2022/06/16 04:22:28;;;;;;;14.88;6.65;;;13.70;98.00;;;;;;5032748;28;20041;-43
2022/06/16 04:24:55;;;;;;;9.65;4.82;;;13.70;97.80;;;;;;5025664;28;20064;-43
2022/06/16 04:27:22;;;;;;;14.02;7.03;;;13.70;97.60;;;;;;5050125;28;20435;-42
2022/06/16 04:29:51;;;;;;;12.55;6.28;;;13.70;98.00;;;;;;5035018;28;20049;-42
2022/06/16 04:32:18;;;;;;;9.48;5.53;;;13.80;98.10;;;;;;5050594;28;20431;-43
2022/06/16 04:34:44;;;;;;;8.68;5.82;;;13.80;97.80;;;;;;5041394;28;20134;-43
2022/06/16 04:37:11;;;;;;;13.95;5.30;;;13.80;98.00;;;;;;5030079;28;20192;-43
2022/06/16 04:39:38;;;;;;;12.00;6.43;;;13.90;97.60;;;;;;5012241;28;20114;-43
2022/06/16 04:42:06;;;;;;;10.85;5.47;;;13.90;98.00;;;;;;5028017;28;20151;-43
2022/06/16 04:44:34;;;;;;;11.45;5.93;;;14.00;97.80;;;;;;5012568;28;20084;-42
2022/06/16 04:47:02;;;;;;;8.52;5.60;;;14.20;97.90;;;;;;5014454;28;20535;-42
2022/06/16 04:49:29;;;;;;;10.00;6.35;;;14.10;97.70;;;;;;5026217;28;20087;-42
2022/06/16 04:51:56;;;;;;;13.73;6.40;;;14.20;97.90;;;;;;5052128;28;20049;-42
2022/06/16 04:54:23;;;;;;;12.40;6.70;;;14.20;98.20;;;;;;5034756;28;20126;-42
2022/06/16 04:56:50;;;;;;;11.18;5.38;;;14.30;98.40;;;;;;5030585;28;20458;-42
2022/06/16 04:59:16;;;;;;;14.00;6.80;;;14.30;98.10;;;;;;5011930;28;20049;-42
2022/06/16 05:01:43;;;;;;;14.30;6.82;;;14.30;98.50;;;;;;5024143;28;20048;-43
2022/06/16 05:04:11;;;;;;;11.43;7.05;;;14.40;98.40;;;;;;5029641;28;20091;-42
2022/06/16 05:06:38;;;;;;;13.27;6.85;;;14.40;98.50;;;;;;5014998;28;20049;-43
2022/06/16 05:09:05;;;;;;;11.98;6.68;;;14.50;98.40;;;;;;5031772;28;20092;-43
2022/06/16 05:11:32;;;;;;;11.05;6.78;;;14.50;98.40;;;;;;5018520;28;20080;-42
2022/06/16 05:14:00;;;;;;;10.85;6.10;;;14.60;98.40;;;;;;5052408;28;20041;-41
2022/06/16 05:16:27;;;;;;;12.07;6.18;;;14.70;98.30;;;;;;5034523;28;20068;-42
2022/06/16 05:18:54;;;;;;;12.98;7.13;;;14.70;98.40;;;;;;5014036;28;20064;-43
2022/06/16 05:21:23;;;;;;;12.32;6.53;;;14.70;98.50;;;;;;5015001;28;20477;-42
2022/06/16 05:23:49;;;;;;;16.42;7.38;;;14.80;98.60;;;;;;5032654;28;20243;-42
2022/06/16 05:26:16;;;;;;;13.48;7.30;;;14.80;98.70;;;;;;5032602;28;20473;-43
2022/06/16 05:28:43;;;;;;;11.68;6.68;;;14.80;98.80;;;;;;5033081;28;20091;-42
2022/06/16 05:31:10;;;;;;;14.20;7.78;;;14.80;98.70;;;;;;5050552;28;20041;-42
2022/06/16 05:33:37;;;;;;;13.30;6.82;;;14.80;98.80;;;;;;5034467;28;20589;-42
2022/06/16 05:36:04;;;;;;;14.10;6.30;;;14.80;98.90;;;;;;5034365;28;20076;-42
2022/06/16 05:38:33;;;;;;;15.32;7.20;;;14.90;98.60;;;;;;5039867;28;20041;-42
2022/06/16 05:41:01;;;;;;;18.30;7.63;;;14.90;98.90;;;;;;5032172;28;20045;-42
2022/06/16 05:43:27;;;;;;;15.57;7.38;;;14.90;99.00;;;;;;5032004;28;20049;-42
2022/06/16 05:45:54;;;;;;;18.38;8.48;;;15.00;98.80;;;;;;5014650;28;20049;-42
2022/06/16 05:48:21;;;;;;;14.00;7.90;;;15.10;99.10;;;;;;5013619;28;20099;-42
2022/06/16 05:50:48;;;;;;;15.93;8.20;;;15.20;99.10;;;;;;5032309;28;20080;-42
2022/06/16 05:53:15;;;;;;;16.35;7.53;;;15.30;99.30;;;;;;5032240;28;20045;-42
2022/06/16 05:55:43;;;;;;;12.32;7.10;;;15.40;99.00;;;;;;5014405;28;20129;-42
2022/06/16 05:58:10;;;;;;;14.65;7.97;;;15.40;98.90;;;;;;5013614;28;20072;-42
2022/06/16 06:00:37;;;;;;;15.60;7.05;;;15.50;99.10;;;;;;5014463;28;20108;-42
2022/06/16 06:03:04;;;;;;;12.63;7.80;;;15.50;99.00;;;;;;5017738;28;20049;-42
2022/06/16 06:05:31;;;;;;;13.23;7.43;;;15.50;99.40;;;;;;5035992;28;20046;-42
2022/06/16 06:16:28;;;;;;;12.68;7.50;;;16.00;98.80;;;;;;5009867;28;20184;-42
2022/06/16 06:18:55;;;;;;;14.77;7.00;;;16.10;98.70;;;;;;5034790;28;20049;-43
2022/06/16 06:21:58;;;;;;;12.23;6.97;;;16.20;98.70;;;;;;5035513;28;20485;-43
2022/06/16 06:24:09;;;;;;;15.05;7.40;;;16.30;98.70;;;;;;5034669;28;20465;-43
2022/06/16 06:26:37;;;;;;;17.60;7.32;;;16.50;98.60;;;;;;5035463;28;20500;-43
2022/06/16 06:29:04;;;;;;;13.88;6.53;;;16.70;98.80;;;;;;5034340;28;20143;-43
2022/06/16 06:31:30;;;;;;;9.90;6.30;;;16.80;98.40;;;;;;5035458;28;20187;-43
2022/06/16 06:33:57;;;;;;;10.57;5.25;;;17.00;98.00;;;;;;5034828;28;20436;-43
2022/06/16 06:36:24;;;;;;;7.63;3.72;;;17.20;97.50;;;;;;5013087;28;20054;-43
2022/06/16 06:38:51;;;;;;;8.45;3.65;;;17.30;96.70;;;;;;5034577;28;20045;-43
2022/06/16 06:41:18;;;;;;;7.90;3.40;;;17.40;95.90;;;;;;5017490;28;20554;-42
2022/06/16 06:43:46;;;;;;;7.72;2.72;;;17.60;95.60;;;;;;5016753;28;20099;-43
2022/06/16 06:46:13;;;;;;;8.35;2.92;;;17.70;94.90;;;;;;5051804;28;20080;-43
2022/06/16 06:48:40;;;;;;;5.80;2.50;;;17.90;94.20;;;;;;5054781;28;20045;-43
2022/06/16 06:51:07;;;;;;;6.53;3.00;;;18.00;93.80;;;;;;5054995;28;20472;-43
2022/06/16 06:53:33;;;;;;;5.85;2.92;;;18.10;93.20;;;;;;5037081;28;20371;-43
2022/06/16 06:56:00;;;;;;;6.93;2.60;;;18.20;93.20;;;;;;5034700;28;20521;-43
2022/06/16 06:58:31;;;;;;;8.50;2.55;;;18.40;93.00;;;;;;5035033;28;20033;-43
2022/06/16 07:01:01;;;;;;;6.05;2.35;;;18.60;92.70;;;;;;5034455;28;20091;-43
2022/06/16 07:03:28;;;;;;;4.75;1.83;;;18.70;92.20;;;;;;5016409;28;20060;-43
2022/06/16 07:05:55;;;;;;;5.22;1.75;;;18.80;91.80;;;;;;5017244;28;20133;-43
2022/06/16 07:08:21;;;;;;;3.85;1.20;;;19.00;90.90;;;;;;5017156;28;20554;-43
2022/06/16 07:10:49;;;;;;;3.58;1.15;;;19.10;90.40;;;;;;5034861;28;20131;-43
2022/06/16 07:13:16;;;;;;;4.25;1.15;;;19.30;89.10;;;;;;5016281;28;20037;-43
2022/06/16 07:15:43;;;;;;;4.57;1.40;;;19.40;88.40;;;;;;5034626;28;20045;-42
2022/06/16 07:18:11;;;;;;;4.20;1.27;;;19.60;87.50;;;;;;5034013;28;20045;-42
2022/06/16 07:20:38;;;;;;;6.22;1.30;;;19.70;86.50;;;;;;5034756;28;20057;-42
2022/06/16 07:23:04;;;;;;;3.60;1.45;;;19.90;85.90;;;;;;5017137;28;20042;-43
2022/06/16 07:25:31;;;;;;;2.92;1.05;;;20.00;85.00;;;;;;5034610;28;20393;-43
2022/06/16 07:27:58;;;;;;;2.78;1.02;;;20.10;83.80;;;;;;5034322;28;20049;-43
2022/06/16 07:30:25;;;;;;;2.10;0.85;;;20.20;82.90;;;;;;5033532;28;20045;-43
2022/06/16 07:32:52;;;;;;;3.60;1.10;;;20.30;82.90;;;;;;5034319;28;20083;-43
2022/06/16 07:35:21;;;;;;;6.63;1.00;;;20.30;81.10;;;;;;5034381;28;20123;-43
2022/06/16 07:37:48;;;;;;;2.67;1.00;;;20.20;81.70;;;;;;5026329;28;20065;-43
2022/06/16 07:40:16;;;;;;;3.30;0.98;;;20.30;82.30;;;;;;5050368;28;20148;-43
2022/06/16 07:42:45;;;;;;;3.72;1.00;;;20.50;82.30;;;;;;5054092;28;20439;-43
2022/06/16 07:45:13;;;;;;;3.33;1.10;;;20.70;81.60;;;;;;5053970;28;20417;-44
2022/06/16 07:47:39;;;;;;;4.70;1.38;;;20.90;79.70;;;;;;5054238;28;20045;-44
2022/06/16 07:50:08;;;;;;;5.90;1.23;;;21.00;78.70;;;;;;5053202;28;20076;-43
2022/06/16 07:52:36;;;;;;;2.85;1.05;;;21.20;78.20;;;;;;5053223;28;20366;-44
2022/06/16 07:55:03;;;;;;;2.67;1.02;;;21.30;78.20;;;;;;5053595;28;20041;-43
2022/06/16 07:57:32;;;;;;;3.70;1.15;;;21.50;78.30;;;;;;5053881;28;20404;-43
2022/06/16 07:59:59;;;;;;;5.95;1.20;;;21.60;78.10;;;;;;5051294;28;20044;-43
2022/06/16 08:02:26;;;;;;;3.90;1.10;;;21.80;77.00;;;;;;5053918;28;20110;-43
2022/06/16 08:04:53;;;;;;;3.75;0.95;;;22.00;75.80;;;;;;5053877;28;20045;-43
2022/06/16 08:07:20;;;;;;;4.25;1.17;;;22.10;75.70;;;;;;5052477;28;20090;-42
2022/06/16 08:09:48;;;;;;;3.72;1.13;;;22.20;74.70;;;;;;5049899;28;20547;-43
2022/06/16 08:12:15;;;;;;;3.33;1.08;;;22.40;74.00;;;;;;5053420;28;20048;-43
2022/06/16 08:14:44;;;;;;;4.50;1.48;;;22.40;73.70;;;;;;5052389;28;20384;-43
2022/06/16 08:17:12;;;;;;;3.05;1.00;;;22.50;72.80;;;;;;5051495;28;20095;-42
2022/06/16 08:19:39;;;;;;;5.10;1.20;;;22.60;72.80;;;;;;5053570;28;20087;-43
2022/06/16 08:22:06;;;;;;;3.45;1.00;;;22.80;73.60;;;;;;5050868;28;20132;-43
2022/06/16 08:24:33;;;;;;;2.65;0.95;;;23.00;73.20;;;;;;5052607;28;20045;-44
2022/06/16 08:27:02;;;;;;;3.40;1.30;;;23.10;71.70;;;;;;5053344;28;20898;-43
2022/06/16 08:29:28;;;;;;;4.90;1.20;;;23.20;71.00;;;;;;5053044;28;20048;-42
2022/06/16 08:31:56;;;;;;;3.90;1.55;;;23.30;70.50;;;;;;5052624;28;20041;-43
2022/06/16 08:34:23;;;;;;;5.18;1.38;;;23.50;69.20;;;;;;5052276;28;20041;-42
2022/06/16 08:36:50;;;;;;;5.53;1.30;;;23.60;69.30;;;;;;5051449;28;20476;-43
2022/06/16 08:39:17;;;;;;;4.72;1.30;;;23.70;67.60;;;;;;5052763;28;20059;-43
2022/06/16 08:41:46;;;;;;;4.25;1.13;;;23.70;68.20;;;;;;5051339;28;20427;-43
2022/06/16 08:44:17;;;;;;;3.05;1.10;;;23.80;67.70;;;;;;5051909;28;20049;-44
2022/06/16 08:46:46;;;;;;;3.65;1.30;;;23.90;67.70;;;;;;5035492;28;20044;-44
2022/06/16 08:49:20;;;;;;;4.13;1.50;;;24.00;67.90;;;;;;5051818;28;20049;-42
2022/06/16 08:51:58;;;;;;;3.35;1.38;;;24.10;67.30;;;;;;5052060;28;20052;-44
2022/06/16 08:54:33;;;;;;;5.75;1.77;;;24.20;67.10;;;;;;5051944;28;20053;-44
2022/06/16 08:57:01;;;;;;;3.90;1.15;;;24.30;66.00;;;;;;5051575;28;20099;-43
2022/06/16 08:59:36;;;;;;;3.75;1.40;;;24.40;65.90;;;;;;5052930;28;20060;-43
2022/06/16 09:02:05;;;;;;;4.38;1.55;;;24.60;66.20;;;;;;5052008;28;20106;-44
2022/06/16 09:04:33;;;;;;;5.10;1.60;;;24.60;63.70;;;;;;5052878;28;20108;-44
2022/06/16 09:07:04;;;;;;;3.65;1.67;;;24.60;64.50;;;;;;5052826;28;20084;-43
2022/06/16 09:12:26;;;;;;;2.88;1.40;;;24.90;65.70;;;;;;5051524;28;19916;-45
2022/06/16 09:15:14;;;;;;;4.47;1.70;;;24.90;64.80;;;;;;5048086;28;20103;-44
2022/06/16 09:17:47;;;;;;;7.40;1.90;;;25.00;64.70;;;;;;5032761;28;20111;-44
2022/06/16 09:20:16;;;;;;;4.82;1.77;;;25.10;63.50;;;;;;5033120;28;20046;-44
2022/06/16 09:22:55;;;;;;;6.07;2.05;;;25.20;63.30;;;;;;5050635;28;20048;-45
2022/06/16 09:25:35;;;;;;;5.20;1.80;;;25.20;62.30;;;;;;5051290;28;20048;-44
2022/06/16 09:28:04;;;;;;;6.78;1.98;;;25.10;63.60;;;;;;5052570;28;20041;-44
2022/06/16 09:30:36;;;;;;;6.80;1.75;;;25.20;63.10;;;;;;5051978;28;20094;-44
2022/06/16 09:33:05;;;;;;;6.00;2.20;;;25.20;62.20;;;;;;5032498;28;20477;-45
2022/06/16 09:35:35;;;;;;;7.82;2.53;;;25.20;62.10;;;;;;5033004;28;20088;-44
2022/06/16 09:38:05;;;;;;;4.88;1.90;;;25.30;63.80;;;;;;5036687;28;20050;-44
2022/06/16 09:40:35;;;;;;;9.00;2.70;;;25.60;62.70;;;;;;5036308;28;20509;-44
2022/06/16 09:43:06;;;;;;;5.57;1.63;;;25.70;60.60;;;;;;5054586;28;20535;-43
2022/06/16 09:45:36;;;;;;;7.63;2.38;;;25.70;62.50;;;;;;5056439;28;20052;-44
2022/06/16 09:48:05;;;;;;;4.47;2.20;;;26.00;62.60;;;;;;5056620;28;20045;-43
2022/06/16 09:50:37;;;;;;;6.35;2.38;;;26.10;61.30;;;;;;5055251;28;20333;-43
2022/06/16 09:53:07;;;;;;;4.28;2.30;;;26.10;61.20;;;;;;5056027;28;20049;-43
2022/06/16 09:55:35;;;;;;;6.18;2.42;;;26.10;61.40;;;;;;5054227;28;20040;-44
2022/06/16 09:58:11;;;;;;;4.65;2.35;;;26.10;61.70;;;;;;5056398;28;20068;-43
2022/06/16 10:00:39;;;;;;;6.75;2.25;;;26.20;60.20;;;;;;5056226;28;20041;-44
2022/06/16 10:03:16;;;;;;;4.80;2.22;;;26.30;60.40;;;;;;5054936;28;20103;-43
2022/06/16 10:05:47;;;;;;;6.20;2.40;;;26.40;60.40;;;;;;5070872;28;20118;-43
2022/06/16 10:08:16;;;;;;;5.78;2.42;;;26.50;61.10;;;;;;5054892;28;20084;-44
2022/06/16 10:10:45;;;;;;;5.30;2.47;;;26.70;59.90;;;;;;5054956;28;20498;-43
2022/06/16 10:13:17;;;;;;;5.43;3.28;;;26.70;59.40;;;;;;5054759;28;20114;-44
2022/06/16 10:15:47;;;;;;;5.88;2.78;;;26.90;59.20;;;;;;5053534;28;20090;-44
2022/06/16 10:18:14;;;;;;;6.30;2.10;;;27.00;59.60;;;;;;5054878;28;20065;-42
2022/06/16 10:20:40;;;;;;;10.55;2.40;;;26.90;58.90;;;;;;5054445;28;20103;-44
2022/06/16 10:23:10;;;;;;;5.50;2.97;;;27.00;59.00;;;;;;5054794;28;20135;-44
2022/06/16 10:25:40;;;;;;;9.50;2.92;;;27.10;57.90;;;;;;5055037;28;20492;-43
2022/06/16 10:28:16;;;;;;;7.63;2.30;;;27.20;57.00;;;;;;5054945;28;20052;-44
2022/06/16 10:30:44;;;;;;;7.00;2.65;;;27.20;57.70;;;;;;5055584;28;20045;-43
2022/06/16 10:33:12;;;;;;;6.10;2.63;;;27.30;57.40;;;;;;5055481;28;20055;-44
2022/06/16 10:35:39;;;;;;;5.40;2.25;;;27.40;58.40;;;;;;5036411;28;20472;-43
2022/06/16 10:38:10;;;;;;;5.45;2.40;;;27.60;58.20;;;;;;5055213;28;20095;-43
2022/06/16 10:40:39;;;;;;;7.82;2.60;;;27.70;57.00;;;;;;5055522;28;20445;-43
2022/06/16 10:43:08;;;;;;;7.40;2.58;;;27.70;56.70;;;;;;5055293;28;20553;-44
2022/06/16 10:45:36;;;;;;;4.80;2.13;;;27.70;56.20;;;;;;5053198;28;20053;-43
2022/06/16 10:48:05;;;;;;;4.85;2.30;;;27.70;55.90;;;;;;5054554;28;20435;-43
2022/06/16 10:50:35;;;;;;;4.80;2.03;;;27.80;55.90;;;;;;5055342;28;20053;-43
2022/06/16 10:53:04;;;;;;;5.97;2.47;;;27.80;57.10;;;;;;5054483;28;20110;-43
2022/06/16 10:55:36;;;;;;;7.03;2.15;;;28.00;56.20;;;;;;5053126;28;20477;-44
2022/06/16 10:58:06;;;;;;;4.35;2.20;;;28.10;56.30;;;;;;5053896;28;20076;-44
2022/06/16 11:00:34;;;;;;;7.15;2.42;;;28.30;55.00;;;;;;5053649;28;20084;-43
2022/06/16 11:03:07;;;;;;;4.68;2.22;;;28.30;54.90;;;;;;5055157;28;20037;-43
2022/06/16 11:05:35;;;;;;;5.60;2.83;;;28.30;54.70;;;;;;5053513;28;20481;-43
2022/06/16 11:08:07;;;;;;;5.82;2.00;;;28.40;53.80;;;;;;5054521;28;20098;-43
2022/06/16 11:10:35;;;;;;;6.35;2.50;;;28.30;55.20;;;;;;5055165;28;20044;-43
2022/06/16 11:13:02;;;;;;;3.85;1.92;;;28.30;54.30;;;;;;5053838;28;20049;-44
2022/06/16 11:15:30;;;;;;;6.53;2.15;;;28.30;54.70;;;;;;5053671;28;20302;-43
2022/06/16 11:17:58;;;;;;;11.85;2.45;;;28.30;53.60;;;;;;5054629;28;20456;-43
2022/06/16 11:20:32;;;;;;;6.20;1.98;;;28.40;52.30;;;;;;5053428;28;20439;-44
2022/06/16 11:22:59;;;;;;;5.78;2.08;;;28.50;53.60;;;;;;5053367;28;20123;-43
2022/06/16 11:25:30;;;;;;;7.82;2.67;;;28.60;53.70;;;;;;5053003;28;20075;-44
2022/06/16 11:27:58;;;;;;;7.63;2.40;;;28.70;52.70;;;;;;5054334;28;20446;-44
2022/06/16 11:30:36;;;;;;;5.85;1.75;;;28.70;52.70;;;;;;5051909;28;20138;-44
2022/06/16 11:33:04;;;;;;;10.93;2.67;;;28.80;52.30;;;;;;5049268;28;20066;-44
2022/06/16 11:35:38;;;;;;;7.53;2.40;;;28.80;53.90;;;;;;5052097;28;20045;-44
2022/06/16 11:38:09;;;;;;;7.20;2.38;;;28.90;51.90;;;;;;5051196;28;20115;-44
2022/06/16 11:40:41;;;;;;;6.47;2.40;;;28.90;52.20;;;;;;5053514;28;20044;-44
2022/06/16 11:43:29;;;;;;;6.70;2.30;;;28.90;51.20;;;;;;5047737;28;20068;-43
2022/06/16 11:45:57;;;;;;;5.32;2.20;;;28.90;51.60;;;;;;5053003;28;20448;-43
2022/06/16 11:48:28;;;;;;;5.85;2.03;;;28.90;52.70;;;;;;5053366;28;20045;-43
2022/06/16 11:50:58;;;;;;;;;;;29.10;52.90;;;;;;5054465;28;20037;-43
2022/06/16 11:53:34;;;;;;;5.63;2.55;;;29.00;52.20;;;;;;5052631;28;19928;-43
2022/06/16 11:56:02;;;;;;;4.65;1.90;;;28.80;51.70;;;;;;5051047;28;20041;-43
2022/06/16 11:58:49;;;;;;;5.18;2.15;;;28.80;52.70;;;;;;5052296;28;20385;-43
2022/06/16 12:01:17;;;;;;;5.65;2.15;;;28.80;52.40;;;;;;5042982;28;20084;-43
2022/06/16 12:03:56;;;;;;;5.57;2.25;;;28.80;51.40;;;;;;5049682;28;20053;-43
2022/06/16 12:06:35;;;;;;;6.72;2.50;;;28.80;52.20;;;;;;5034228;28;20103;-43
2022/06/16 12:09:08;;;;;;;4.38;1.90;;;28.90;51.80;;;;;;5051259;28;20081;-43
2022/06/16 12:11:37;;;;;;;4.72;2.08;;;28.90;51.70;;;;;;5050911;28;20431;-43
2022/06/16 12:14:07;;;;;;;6.15;2.20;;;29.10;51.80;;;;;;5052555;28;20090;-43
2022/06/16 12:16:37;;;;;;;5.65;2.13;;;29.30;51.20;;;;;;5047472;28;20045;-44
2022/06/16 12:19:08;;;;;;;4.55;2.38;;;29.20;51.30;;;;;;5049758;28;20094;-44
2022/06/16 12:21:39;;;;;;;4.20;1.80;;;29.20;52.50;;;;;;5052703;28;20102;-43
2022/06/16 12:24:09;;;;;;;3.95;1.75;;;29.00;53.60;;;;;;5053510;28;20044;-43
2022/06/16 12:26:38;;;;;;;4.15;2.28;;;28.90;53.10;;;;;;5052361;28;20468;-43
2022/06/16 12:29:15;;;;;;;4.70;2.08;;;28.80;53.40;;;;;;5053470;28;20131;-43
2022/06/16 12:31:47;;;;;;;7.88;2.10;;;28.80;53.50;;;;;;5053409;28;20049;-44
2022/06/16 12:34:17;;;;;;;4.68;1.90;;;28.80;53.20;;;;;;5051555;28;20053;-43
2022/06/16 12:36:47;;;;;;;6.30;1.95;;;28.90;54.20;;;;;;5056989;28;20055;-44
2022/06/16 12:39:16;;;;;;;6.38;2.22;;;28.80;52.60;;;;;;5062986;28;20049;-44
2022/06/16 12:41:48;;;;;;;4.97;2.25;;;28.90;52.50;;;;;;5030836;28;20091;-43
2022/06/16 12:44:16;;;;;;;3.15;1.90;;;29.00;51.60;;;;;;5039919;28;20055;-43
2022/06/16 12:46:44;;;;;;;7.13;2.15;;;29.20;51.90;;;;;;5041675;28;20519;-43
2022/06/16 12:49:14;;;;;;;5.82;2.10;;;29.40;51.40;;;;;;5032332;28;20053;-45
2022/06/16 12:51:46;;;;;;;5.22;2.28;;;29.60;50.90;;;;;;5033878;28;20127;-45
2022/06/16 12:54:15;;;;;;;6.20;2.05;;;29.70;49.70;;;;;;5030868;28;20253;-44
2022/06/16 12:56:45;;;;;;;4.50;1.90;;;29.70;49.40;;;;;;5025931;28;20135;-45
2022/06/16 12:59:15;;;;;;;5.00;1.92;;;29.60;50.40;;;;;;5042353;28;20072;-43
2022/06/16 13:01:42;;;;;;;8.27;2.33;;;29.50;52.00;;;;;;5035895;28;20430;-43
2022/06/16 13:04:12;;;;;;;8.13;2.13;;;29.40;51.10;;;;;;5053337;28;20036;-44
2022/06/16 13:06:39;;;;;;;3.10;2.15;;;29.10;52.20;;;;;;5036920;28;20077;-43
2022/06/16 13:09:10;;;;;;;2.78;1.60;;;29.00;52.50;;;;;;5065583;28;20447;-42
2022/06/16 13:11:42;;;;;;;3.22;1.83;;;28.90;53.70;;;;;;5063383;28;20044;-43
2022/06/16 13:14:11;;;;;;;3.60;2.20;;;28.80;54.40;;;;;;5046421;28;20044;-42
2022/06/16 13:16:40;;;;;;;5.70;2.20;;;28.70;53.80;;;;;;5034709;28;20041;-43